Time,TemperatureF,DewpointF,PressureIn,WindDirection,WindDirectionDegrees,WindSpeedMPH,WindSpeedGustMPH,Humidity,HourlyPrecipIn,Conditions,Clouds,dailyrainin,SolarRadiationWatts/m^2,SoftwareType,DateUTC
2013-02-07 02:00:00,60.0,60.0,-100.00,NNE,24,1.0,-999.0,100,-99.99,,,-99.99,0.000000,,2013-02-07 08:00:00,
2013-02-07 02:52:00,60.0,60.0,-100.00,NNE,24,1.0,-999.0,100,-99.99,,,-99.99,0.000000,,2013-02-07 08:52:00,
2013-02-07 03:00:00,61.0,61.0,-100.00,ENE,78,4.0,-999.0,100,-99.99,,,-99.99,0.000000,,2013-02-07 09:00:00,
2013-02-07 03:52:00,61.0,61.0,-100.00,ENE,78,4.0,-999.0,100,-99.99,,,-99.99,0.000000,,2013-02-07 09:52:00,
2013-02-07 04:00:00,61.0,61.0,-100.00,ENE,78,6.0,-999.0,99,-99.99,,,-99.99,0.000000,,2013-02-07 10:00:00,
2013-02-07 04:52:00,61.0,61.0,-100.00,ENE,78,6.0,-999.0,99,-99.99,,,-99.99,0.000000,,2013-02-07 10:52:00,
2013-02-07 05:00:00,62.0,61.0,-100.00,East,84,5.0,-999.0,99,-99.99,,,-99.99,0.000000,,2013-02-07 11:00:00,
2013-02-07 05:53:00,62.0,61.0,-100.00,East,84,5.0,-999.0,99,-99.99,,,-99.99,0.000000,,2013-02-07 11:53:00,
2013-02-07 06:00:00,61.0,61.0,-100.00,ENE,61,3.0,-999.0,100,-99.99,,,-99.99,0.000000,,2013-02-07 12:00:00,
2013-02-07 06:53:00,61.0,61.0,-100.00,ENE,61,3.0,-999.0,100,-99.99,,,-99.99,0.000000,,2013-02-07 12:53:00,
2013-02-07 07:00:00,59.0,59.0,-100.00,North,355,3.0,-999.0,100,-99.99,,,-99.99,0.000000,,2013-02-07 13:00:00,
2013-02-07 07:52:00,59.0,59.0,-100.00,North,355,3.0,-999.0,100,-99.99,,,-99.99,0.000000,,2013-02-07 13:52:00,
2013-02-07 08:00:00,60.0,60.0,-100.00,NNE,13,3.0,-999.0,100,-99.99,,,-99.99,16.100000,,2013-02-07 14:00:00,
2013-02-07 08:52:00,60.0,60.0,-100.00,NNE,13,3.0,-999.0,100,-99.99,,,-99.99,16.100000,,2013-02-07 14:52:00,
2013-02-07 09:00:00,64.0,62.0,-100.00,NE,43,3.0,-999.0,92,-99.99,,,-99.99,228.190002,,2013-02-07 15:00:00,
2013-02-07 09:52:00,64.0,62.0,-100.00,NE,43,3.0,-999.0,92,-99.99,,,-99.99,228.190002,,2013-02-07 15:52:00,
2013-02-07 10:00:00,69.0,60.0,-100.00,NE,42,2.0,-999.0,73,-99.99,,,-99.99,463.790009,,2013-02-07 16:00:00,
2013-02-07 10:52:00,69.0,60.0,-100.00,NE,42,2.0,-999.0,73,-99.99,,,-99.99,463.790009,,2013-02-07 16:52:00,
2013-02-07 11:00:00,72.0,62.0,-100.00,North,3,1.0,-999.0,69,-99.99,,,-99.99,577.030029,,2013-02-07 17:00:00,
2013-02-07 11:52:00,72.0,62.0,-100.00,North,3,1.0,-999.0,69,-99.99,,,-99.99,577.030029,,2013-02-07 17:52:00,
2013-02-07 12:00:00,75.0,61.0,-100.00,WNW,295,2.0,-999.0,61,-99.99,,,-99.99,654.080017,,2013-02-07 18:00:00,
2013-02-07 12:52:00,75.0,61.0,-100.00,WNW,295,2.0,-999.0,61,-99.99,,,-99.99,654.080017,,2013-02-07 18:52:00,
2013-02-07 13:00:00,74.0,58.0,-100.00,WNW,298,3.0,-999.0,57,-99.99,,,-99.99,496.089996,,2013-02-07 19:00:00,
2013-02-07 13:52:00,74.0,58.0,-100.00,WNW,298,3.0,-999.0,57,-99.99,,,-99.99,496.089996,,2013-02-07 19:52:00,
2013-02-07 14:00:00,72.0,62.0,-100.00,SW,230,9.0,-999.0,70,-99.99,,,-99.99,570.479980,,2013-02-07 20:00:00,
2013-02-07 14:52:00,72.0,62.0,-100.00,SW,230,9.0,-999.0,70,-99.99,,,-99.99,570.479980,,2013-02-07 20:52:00,
2013-02-07 15:00:00,75.0,61.0,-100.00,West,264,4.0,-999.0,60,-99.99,,,-99.99,390.070007,,2013-02-07 21:00:00,
2013-02-07 15:52:00,75.0,61.0,-100.00,West,264,4.0,-999.0,60,-99.99,,,-99.99,390.070007,,2013-02-07 21:52:00,
2013-02-07 16:00:00,74.0,60.0,-100.00,NNW,335,2.0,-999.0,62,-99.99,,,-99.99,363.380005,,2013-02-07 22:00:00,
2013-02-07 16:52:00,74.0,60.0,-100.00,NNW,335,2.0,-999.0,62,-99.99,,,-99.99,363.380005,,2013-02-07 22:52:00,
2013-02-07 17:00:00,70.0,59.0,-100.00,NW,324,1.0,-999.0,68,-99.99,,,-99.99,172.710007,,2013-02-07 23:00:00,
2013-02-07 17:52:00,70.0,59.0,-100.00,NW,324,1.0,-999.0,68,-99.99,,,-99.99,172.710007,,2013-02-07 23:52:00,
2013-02-07 18:00:00,64.0,58.0,-100.00,NNW,335,0.0,-999.0,81,-99.99,,,-99.99,20.240000,,2013-02-08 00:00:00,
2013-02-07 18:52:00,64.0,58.0,-100.00,NNW,335,0.0,-999.0,81,-99.99,,,-99.99,20.240000,,2013-02-08 00:52:00,
2013-02-07 19:00:00,59.0,57.0,-100.00,North,349,0.0,-999.0,92,-99.99,,,-99.99,0.000000,,2013-02-08 01:00:00,
2013-02-07 19:52:00,59.0,57.0,-100.00,North,349,0.0,-999.0,92,-99.99,,,-99.99,0.000000,,2013-02-08 01:52:00,
2013-02-07 20:00:00,57.0,57.0,-100.00,North,0,0.0,-999.0,97,-99.99,,,-99.99,0.000000,,2013-02-08 02:00:00,
2013-02-07 20:52:00,57.0,57.0,-100.00,North,0,0.0,-999.0,97,-99.99,,,-99.99,0.000000,,2013-02-08 02:52:00,
2013-02-07 21:00:00,55.0,55.0,-100.00,NNE,13,0.0,-999.0,98,-99.99,,,-99.99,0.000000,,2013-02-08 03:00:00,
2013-02-07 21:52:00,55.0,55.0,-100.00,NNE,13,0.0,-999.0,98,-99.99,,,-99.99,0.000000,,2013-02-08 03:52:00,
2013-02-07 22:00:00,54.0,54.0,-100.00,North,358,0.0,-999.0,99,-99.99,,,-99.99,0.000000,,2013-02-08 04:00:00,
2013-02-07 22:52:00,54.0,54.0,-100.00,North,358,0.0,-999.0,99,-99.99,,,-99.99,0.000000,,2013-02-08 04:52:00,
2013-02-07 23:00:00,52.0,52.0,-100.00,North,3,0.0,-999.0,99,-99.99,,,-99.99,0.000000,,2013-02-08 05:00:00,
2013-02-07 23:52:00,52.0,52.0,-100.00,North,3,0.0,-999.0,99,-99.99,,,-99.99,0.000000,,2013-02-08 05:52:00,